sensor_id;sensor_type;location;lat;lon;timestamp;temperature;humidity
19755;DHT22;10036;47.812;9.274;2022-12-18T00:00:48;-3.80;99.90
19755;DHT22;10036;47.812;9.274;2022-12-18T00:03:15;-3.80;99.90
19755;DHT22;10036;47.812;9.274;2022-12-18T00:05:48;-3.80;99.90
19755;DHT22;10036;47.812;9.274;2022-12-18T00:08:16;-3.70;99.90
19755;DHT22;10036;47.812;9.274;2022-12-18T00:10:45;-3.70;99.90
19755;DHT22;10036;47.812;9.274;2022-12-18T00:13:12;-3.70;99.90
19755;DHT22;10036;47.812;9.274;2022-12-18T00:15:39;-3.70;99.90
19755;DHT22;10036;47.812;9.274;2022-12-18T00:18:06;-3.70;99.90
19755;DHT22;10036;47.812;9.274;2022-12-18T00:20:36;-3.70;99.90
19755;DHT22;10036;47.812;9.274;2022-12-18T00:23:04;-3.70;99.90
19755;DHT22;10036;47.812;9.274;2022-12-18T00:25:32;-3.70;99.90
19755;DHT22;10036;47.812;9.274;2022-12-18T00:28:01;-3.70;99.90
19755;DHT22;10036;47.812;9.274;2022-12-18T00:30:27;-3.70;99.90
19755;DHT22;10036;47.812;9.274;2022-12-18T00:32:54;-3.70;99.90
19755;DHT22;10036;47.812;9.274;2022-12-18T00:35:21;-3.60;99.90
19755;DHT22;10036;47.812;9.274;2022-12-18T00:37:48;-3.60;99.90
19755;DHT22;10036;47.812;9.274;2022-12-18T00:40:15;-3.60;99.90
19755;DHT22;10036;47.812;9.274;2022-12-18T00:42:42;-3.60;99.90
19755;DHT22;10036;47.812;9.274;2022-12-18T00:45:25;-3.60;99.90
19755;DHT22;10036;47.812;9.274;2022-12-18T00:47:52;-3.60;99.90
19755;DHT22;10036;47.812;9.274;2022-12-18T00:50:20;-3.60;99.90
19755;DHT22;10036;47.812;9.274;2022-12-18T00:52:47;-3.60;99.90
19755;DHT22;10036;47.812;9.274;2022-12-18T00:55:14;-3.60;99.90
19755;DHT22;10036;47.812;9.274;2022-12-18T00:57:41;-3.60;99.90
19755;DHT22;10036;47.812;9.274;2022-12-18T01:00:11;-3.50;99.90
19755;DHT22;10036;47.812;9.274;2022-12-18T01:02:39;-3.60;99.90
19755;DHT22;10036;47.812;9.274;2022-12-18T01:05:07;-3.50;99.90
19755;DHT22;10036;47.812;9.274;2022-12-18T01:07:34;-3.50;99.90
19755;DHT22;10036;47.812;9.274;2022-12-18T01:10:01;-3.50;99.90
19755;DHT22;10036;47.812;9.274;2022-12-18T01:12:28;-3.50;99.90
19755;DHT22;10036;47.812;9.274;2022-12-18T01:14:54;-3.40;99.90
19755;DHT22;10036;47.812;9.274;2022-12-18T01:17:21;-3.40;99.90
19755;DHT22;10036;47.812;9.274;2022-12-18T01:19:50;-3.50;99.90
19755;DHT22;10036;47.812;9.274;2022-12-18T01:22:16;-3.40;99.90
19755;DHT22;10036;47.812;9.274;2022-12-18T01:24:43;-3.40;99.90
19755;DHT22;10036;47.812;9.274;2022-12-18T01:27:10;-3.40;99.90
19755;DHT22;10036;47.812;9.274;2022-12-18T01:29:37;-3.40;99.90
19755;DHT22;10036;47.812;9.274;2022-12-18T01:32:04;-3.30;99.90
19755;DHT22;10036;47.812;9.274;2022-12-18T01:34:31;-3.40;99.90
19755;DHT22;10036;47.812;9.274;2022-12-18T01:37:02;-3.30;99.90
19755;DHT22;10036;47.812;9.274;2022-12-18T01:39:29;-3.40;99.90
19755;DHT22;10036;47.812;9.274;2022-12-18T01:41:57;-3.30;99.90
19755;DHT22;10036;47.812;9.274;2022-12-18T01:45:04;-3.30;99.90
19755;DHT22;10036;47.812;9.274;2022-12-18T01:47:36;-3.30;99.90
19755;DHT22;10036;47.812;9.274;2022-12-18T01:50:07;-3.30;99.90
19755;DHT22;10036;47.812;9.274;2022-12-18T01:52:40;-3.20;99.90
19755;DHT22;10036;47.812;9.274;2022-12-18T01:55:08;-3.20;99.90
19755;DHT22;10036;47.812;9.274;2022-12-18T01:57:35;-3.20;99.90
19755;DHT22;10036;47.812;9.274;2022-12-18T02:00:06;-3.30;99.90
19755;DHT22;10036;47.812;9.274;2022-12-18T02:02:34;-3.30;99.90
19755;DHT22;10036;47.812;9.274;2022-12-18T02:05:02;-3.20;99.90
19755;DHT22;10036;47.812;9.274;2022-12-18T02:07:39;-3.20;99.90
19755;DHT22;10036;47.812;9.274;2022-12-18T02:10:14;-3.20;99.90
19755;DHT22;10036;47.812;9.274;2022-12-18T02:12:48;-3.20;99.90
19755;DHT22;10036;47.812;9.274;2022-12-18T02:15:19;-3.20;99.90
19755;DHT22;10036;47.812;9.274;2022-12-18T02:17:53;-3.20;99.90
19755;DHT22;10036;47.812;9.274;2022-12-18T02:20:23;-3.20;99.90
19755;DHT22;10036;47.812;9.274;2022-12-18T02:23:04;-3.20;99.90
19755;DHT22;10036;47.812;9.274;2022-12-18T02:25:40;-3.20;99.90
19755;DHT22;10036;47.812;9.274;2022-12-18T02:28:13;-3.20;99.90
19755;DHT22;10036;47.812;9.274;2022-12-18T02:30:42;-3.20;99.90
19755;DHT22;10036;47.812;9.274;2022-12-18T02:33:11;-3.20;99.90
19755;DHT22;10036;47.812;9.274;2022-12-18T02:35:40;-3.20;99.90
19755;DHT22;10036;47.812;9.274;2022-12-18T02:38:07;-3.20;99.90
19755;DHT22;10036;47.812;9.274;2022-12-18T02:40:35;-3.20;99.90
19755;DHT22;10036;47.812;9.274;2022-12-18T02:43:07;-3.20;99.90
19755;DHT22;10036;47.812;9.274;2022-12-18T02:45:35;-3.20;99.90
19755;DHT22;10036;47.812;9.274;2022-12-18T02:48:03;-3.20;99.90
19755;DHT22;10036;47.812;9.274;2022-12-18T02:50:36;-3.20;99.90
19755;DHT22;10036;47.812;9.274;2022-12-18T02:53:13;-3.20;99.90
19755;DHT22;10036;47.812;9.274;2022-12-18T02:55:52;-3.20;99.90
19755;DHT22;10036;47.812;9.274;2022-12-18T02:58:26;-3.20;99.90
19755;DHT22;10036;47.812;9.274;2022-12-18T03:01:02;-3.20;99.90
19755;DHT22;10036;47.812;9.274;2022-12-18T03:03:35;-3.10;99.90
19755;DHT22;10036;47.812;9.274;2022-12-18T03:06:06;-3.20;99.90
19755;DHT22;10036;47.812;9.274;2022-12-18T03:08:38;-3.20;99.90
19755;DHT22;10036;47.812;9.274;2022-12-18T03:11:08;-3.20;99.90
19755;DHT22;10036;47.812;9.274;2022-12-18T03:13:38;-3.20;99.90
19755;DHT22;10036;47.812;9.274;2022-12-18T03:16:10;-3.20;99.90
19755;DHT22;10036;47.812;9.274;2022-12-18T03:18:42;-3.20;99.90
19755;DHT22;10036;47.812;9.274;2022-12-18T03:21:12;-3.20;99.90
19755;DHT22;10036;47.812;9.274;2022-12-18T03:23:44;-3.20;99.90
19755;DHT22;10036;47.812;9.274;2022-12-18T03:26:15;-3.20;99.90
19755;DHT22;10036;47.812;9.274;2022-12-18T03:28:47;-3.20;99.90
19755;DHT22;10036;47.812;9.274;2022-12-18T03:31:18;-3.10;99.90
19755;DHT22;10036;47.812;9.274;2022-12-18T03:33:51;-3.10;99.90
19755;DHT22;10036;47.812;9.274;2022-12-18T03:36:18;-3.20;99.90
19755;DHT22;10036;47.812;9.274;2022-12-18T03:38:45;-3.20;99.90
19755;DHT22;10036;47.812;9.274;2022-12-18T03:41:17;-3.20;99.90
19755;DHT22;10036;47.812;9.274;2022-12-18T03:43:50;-3.20;99.90
19755;DHT22;10036;47.812;9.274;2022-12-18T03:46:26;-3.10;99.90
19755;DHT22;10036;47.812;9.274;2022-12-18T03:48:59;-3.10;99.90
19755;DHT22;10036;47.812;9.274;2022-12-18T03:51:35;-3.20;99.90
19755;DHT22;10036;47.812;9.274;2022-12-18T03:54:05;-3.20;99.90
19755;DHT22;10036;47.812;9.274;2022-12-18T03:56:36;-3.10;99.90
19755;DHT22;10036;47.812;9.274;2022-12-18T03:59:06;-3.10;99.90
19755;DHT22;10036;47.812;9.274;2022-12-18T04:01:38;-3.10;99.90
19755;DHT22;10036;47.812;9.274;2022-12-18T04:04:07;-3.10;99.90
19755;DHT22;10036;47.812;9.274;2022-12-18T04:06:35;-3.10;99.90
19755;DHT22;10036;47.812;9.274;2022-12-18T04:09:02;-3.10;99.90
19755;DHT22;10036;47.812;9.274;2022-12-18T04:11:30;-3.10;99.90
19755;DHT22;10036;47.812;9.274;2022-12-18T04:13:57;-3.10;99.90
19755;DHT22;10036;47.812;9.274;2022-12-18T04:16:25;-3.10;99.90
19755;DHT22;10036;47.812;9.274;2022-12-18T04:18:53;-3.10;99.90
19755;DHT22;10036;47.812;9.274;2022-12-18T04:21:21;-3.20;99.90
19755;DHT22;10036;47.812;9.274;2022-12-18T04:23:48;-3.10;99.90
19755;DHT22;10036;47.812;9.274;2022-12-18T04:26:15;-3.10;99.90
19755;DHT22;10036;47.812;9.274;2022-12-18T04:28:41;-3.10;99.90
19755;DHT22;10036;47.812;9.274;2022-12-18T04:31:08;-3.00;99.90
19755;DHT22;10036;47.812;9.274;2022-12-18T04:33:35;-3.00;99.90
19755;DHT22;10036;47.812;9.274;2022-12-18T04:36:04;-3.00;99.90
19755;DHT22;10036;47.812;9.274;2022-12-18T04:38:31;-3.00;99.90
19755;DHT22;10036;47.812;9.274;2022-12-18T04:40:58;-3.00;99.90
19755;DHT22;10036;47.812;9.274;2022-12-18T04:43:25;-3.00;99.90
19755;DHT22;10036;47.812;9.274;2022-12-18T04:45:52;-3.00;99.90
19755;DHT22;10036;47.812;9.274;2022-12-18T04:48:18;-3.00;99.90
19755;DHT22;10036;47.812;9.274;2022-12-18T04:50:46;-3.10;99.90
19755;DHT22;10036;47.812;9.274;2022-12-18T04:53:15;-3.10;99.90
19755;DHT22;10036;47.812;9.274;2022-12-18T04:55:42;-3.00;99.90
19755;DHT22;10036;47.812;9.274;2022-12-18T04:58:08;-3.00;99.90
19755;DHT22;10036;47.812;9.274;2022-12-18T05:00:35;-3.00;99.90
19755;DHT22;10036;47.812;9.274;2022-12-18T05:03:02;-3.10;99.90
19755;DHT22;10036;47.812;9.274;2022-12-18T05:05:29;-3.10;99.90
19755;DHT22;10036;47.812;9.274;2022-12-18T05:07:56;-3.10;99.90
19755;DHT22;10036;47.812;9.274;2022-12-18T05:10:24;-3.10;99.90
19755;DHT22;10036;47.812;9.274;2022-12-18T05:12:51;-3.10;99.90
19755;DHT22;10036;47.812;9.274;2022-12-18T05:15:28;-3.00;99.90
19755;DHT22;10036;47.812;9.274;2022-12-18T05:17:56;-3.00;99.90
19755;DHT22;10036;47.812;9.274;2022-12-18T05:20:24;-3.00;99.90
19755;DHT22;10036;47.812;9.274;2022-12-18T05:22:51;-2.90;99.90
19755;DHT22;10036;47.812;9.274;2022-12-18T05:25:19;-2.90;99.90
19755;DHT22;10036;47.812;9.274;2022-12-18T05:27:47;-2.90;99.90
19755;DHT22;10036;47.812;9.274;2022-12-18T05:30:14;-2.90;99.90
19755;DHT22;10036;47.812;9.274;2022-12-18T05:32:42;-2.90;99.90
19755;DHT22;10036;47.812;9.274;2022-12-18T05:35:10;-2.90;99.90
19755;DHT22;10036;47.812;9.274;2022-12-18T05:37:37;-2.90;99.90
19755;DHT22;10036;47.812;9.274;2022-12-18T05:40:05;-2.90;99.90
19755;DHT22;10036;47.812;9.274;2022-12-18T05:42:32;-2.90;99.90
19755;DHT22;10036;47.812;9.274;2022-12-18T05:45:00;-2.90;99.90
19755;DHT22;10036;47.812;9.274;2022-12-18T05:47:27;-3.00;99.90
19755;DHT22;10036;47.812;9.274;2022-12-18T05:49:54;-3.00;99.90
19755;DHT22;10036;47.812;9.274;2022-12-18T05:52:21;-3.00;99.90
19755;DHT22;10036;47.812;9.274;2022-12-18T05:54:48;-3.00;99.90
19755;DHT22;10036;47.812;9.274;2022-12-18T05:57:15;-2.90;99.90
19755;DHT22;10036;47.812;9.274;2022-12-18T05:59:42;-2.90;99.90
19755;DHT22;10036;47.812;9.274;2022-12-18T06:02:10;-2.80;99.90
19755;DHT22;10036;47.812;9.274;2022-12-18T06:04:38;-2.80;99.90
19755;DHT22;10036;47.812;9.274;2022-12-18T06:07:05;-2.90;99.90
19755;DHT22;10036;47.812;9.274;2022-12-18T06:09:31;-2.80;99.90
19755;DHT22;10036;47.812;9.274;2022-12-18T06:11:58;-2.90;99.90
19755;DHT22;10036;47.812;9.274;2022-12-18T06:14:25;-2.90;99.90
19755;DHT22;10036;47.812;9.274;2022-12-18T06:16:52;-3.00;99.90
19755;DHT22;10036;47.812;9.274;2022-12-18T06:19:20;-2.90;99.90
19755;DHT22;10036;47.812;9.274;2022-12-18T06:21:47;-2.90;99.90
19755;DHT22;10036;47.812;9.274;2022-12-18T06:24:14;-2.90;99.90
19755;DHT22;10036;47.812;9.274;2022-12-18T06:26:41;-2.90;99.90
19755;DHT22;10036;47.812;9.274;2022-12-18T06:29:08;-2.90;99.90
19755;DHT22;10036;47.812;9.274;2022-12-18T06:31:35;-2.90;99.90
19755;DHT22;10036;47.812;9.274;2022-12-18T06:34:03;-2.90;99.90
19755;DHT22;10036;47.812;9.274;2022-12-18T06:36:31;-2.90;99.90
19755;DHT22;10036;47.812;9.274;2022-12-18T06:38:58;-2.90;99.90
19755;DHT22;10036;47.812;9.274;2022-12-18T06:41:25;-2.80;99.90
19755;DHT22;10036;47.812;9.274;2022-12-18T06:43:51;-2.80;99.90
19755;DHT22;10036;47.812;9.274;2022-12-18T06:46:18;-2.70;99.90
19755;DHT22;10036;47.812;9.274;2022-12-18T06:48:47;-2.80;99.90
19755;DHT22;10036;47.812;9.274;2022-12-18T06:51:17;-2.90;99.90
19755;DHT22;10036;47.812;9.274;2022-12-18T06:53:45;-2.90;99.90
19755;DHT22;10036;47.812;9.274;2022-12-18T06:56:12;-2.90;99.90
19755;DHT22;10036;47.812;9.274;2022-12-18T06:58:39;-2.90;99.90
19755;DHT22;10036;47.812;9.274;2022-12-18T07:01:09;-2.90;99.90
19755;DHT22;10036;47.812;9.274;2022-12-18T07:03:37;-3.00;99.90
19755;DHT22;10036;47.812;9.274;2022-12-18T07:06:04;-3.00;99.90
19755;DHT22;10036;47.812;9.274;2022-12-18T07:08:32;-3.00;99.90
19755;DHT22;10036;47.812;9.274;2022-12-18T07:11:03;-2.90;99.90
19755;DHT22;10036;47.812;9.274;2022-12-18T07:13:30;-2.90;99.90
19755;DHT22;10036;47.812;9.274;2022-12-18T07:16:06;-2.80;99.90
19755;DHT22;10036;47.812;9.274;2022-12-18T07:18:33;-2.90;99.90
19755;DHT22;10036;47.812;9.274;2022-12-18T07:21:03;-2.90;99.90
19755;DHT22;10036;47.812;9.274;2022-12-18T07:23:32;-2.90;99.90
19755;DHT22;10036;47.812;9.274;2022-12-18T07:26:02;-2.90;99.90
19755;DHT22;10036;47.812;9.274;2022-12-18T07:28:29;-2.90;99.90
19755;DHT22;10036;47.812;9.274;2022-12-18T07:30:56;-3.00;99.90
19755;DHT22;10036;47.812;9.274;2022-12-18T07:33:23;-2.90;99.90
19755;DHT22;10036;47.812;9.274;2022-12-18T07:35:49;-2.90;99.90
19755;DHT22;10036;47.812;9.274;2022-12-18T07:38:16;-2.90;99.90
19755;DHT22;10036;47.812;9.274;2022-12-18T07:40:43;-3.00;99.90
19755;DHT22;10036;47.812;9.274;2022-12-18T07:43:11;-3.00;99.90
19755;DHT22;10036;47.812;9.274;2022-12-18T07:45:38;-3.00;99.90
19755;DHT22;10036;47.812;9.274;2022-12-18T07:48:05;-2.90;99.90
19755;DHT22;10036;47.812;9.274;2022-12-18T07:50:32;-2.90;99.90
19755;DHT22;10036;47.812;9.274;2022-12-18T07:52:59;-2.90;99.90
19755;DHT22;10036;47.812;9.274;2022-12-18T07:55:28;-2.90;99.90
19755;DHT22;10036;47.812;9.274;2022-12-18T07:57:55;-2.90;99.90
19755;DHT22;10036;47.812;9.274;2022-12-18T08:00:23;-2.90;99.90
19755;DHT22;10036;47.812;9.274;2022-12-18T08:02:50;-2.90;99.90
19755;DHT22;10036;47.812;9.274;2022-12-18T08:05:17;-2.90;99.90
19755;DHT22;10036;47.812;9.274;2022-12-18T08:07:44;-2.90;99.90
19755;DHT22;10036;47.812;9.274;2022-12-18T08:10:11;-2.80;99.90
19755;DHT22;10036;47.812;9.274;2022-12-18T08:12:38;-2.90;99.90
19755;DHT22;10036;47.812;9.274;2022-12-18T08:15:06;-3.00;99.90
19755;DHT22;10036;47.812;9.274;2022-12-18T08:17:34;-2.90;99.90
19755;DHT22;10036;47.812;9.274;2022-12-18T08:20:01;-2.90;99.90
19755;DHT22;10036;47.812;9.274;2022-12-18T08:22:28;-2.80;99.90
19755;DHT22;10036;47.812;9.274;2022-12-18T08:24:55;-2.80;99.90
19755;DHT22;10036;47.812;9.274;2022-12-18T08:27:22;-2.80;99.90
19755;DHT22;10036;47.812;9.274;2022-12-18T08:29:48;-2.70;99.90
19755;DHT22;10036;47.812;9.274;2022-12-18T08:32:15;-2.80;99.90
19755;DHT22;10036;47.812;9.274;2022-12-18T08:34:43;-2.90;99.90
19755;DHT22;10036;47.812;9.274;2022-12-18T08:37:10;-2.90;99.90
19755;DHT22;10036;47.812;9.274;2022-12-18T08:39:37;-2.80;99.90
19755;DHT22;10036;47.812;9.274;2022-12-18T08:42:04;-2.80;99.90
19755;DHT22;10036;47.812;9.274;2022-12-18T08:44:48;-2.70;99.90
19755;DHT22;10036;47.812;9.274;2022-12-18T08:47:15;-2.70;99.90
19755;DHT22;10036;47.812;9.274;2022-12-18T08:49:43;-2.70;99.90
19755;DHT22;10036;47.812;9.274;2022-12-18T08:52:10;-2.60;99.90
19755;DHT22;10036;47.812;9.274;2022-12-18T08:54:37;-2.60;99.90
19755;DHT22;10036;47.812;9.274;2022-12-18T08:57:04;-2.70;99.90
19755;DHT22;10036;47.812;9.274;2022-12-18T08:59:31;-2.70;99.90
19755;DHT22;10036;47.812;9.274;2022-12-18T09:01:58;-2.80;99.90
19755;DHT22;10036;47.812;9.274;2022-12-18T09:04:24;-2.80;99.90
19755;DHT22;10036;47.812;9.274;2022-12-18T09:06:53;-2.70;99.90
19755;DHT22;10036;47.812;9.274;2022-12-18T09:09:19;-2.80;99.90
19755;DHT22;10036;47.812;9.274;2022-12-18T09:11:46;-2.70;99.90
19755;DHT22;10036;47.812;9.274;2022-12-18T09:14:13;-2.70;99.90
19755;DHT22;10036;47.812;9.274;2022-12-18T09:16:40;-2.70;99.90
19755;DHT22;10036;47.812;9.274;2022-12-18T09:19:08;-2.80;99.90
19755;DHT22;10036;47.812;9.274;2022-12-18T09:21:37;-2.70;99.90
19755;DHT22;10036;47.812;9.274;2022-12-18T09:24:06;-2.70;99.90
19755;DHT22;10036;47.812;9.274;2022-12-18T09:26:33;-2.70;99.90
19755;DHT22;10036;47.812;9.274;2022-12-18T09:29:00;-2.60;99.90
19755;DHT22;10036;47.812;9.274;2022-12-18T09:31:27;-2.40;99.90
19755;DHT22;10036;47.812;9.274;2022-12-18T09:33:55;-2.40;99.90
19755;DHT22;10036;47.812;9.274;2022-12-18T09:36:21;-2.40;99.90
19755;DHT22;10036;47.812;9.274;2022-12-18T09:38:48;-2.30;99.90
19755;DHT22;10036;47.812;9.274;2022-12-18T09:41:27;-2.30;99.90
19755;DHT22;10036;47.812;9.274;2022-12-18T09:44:00;-2.30;99.90
19755;DHT22;10036;47.812;9.274;2022-12-18T09:46:31;-2.40;99.90
19755;DHT22;10036;47.812;9.274;2022-12-18T09:49:03;-2.40;99.90
19755;DHT22;10036;47.812;9.274;2022-12-18T09:51:37;-2.40;99.90
19755;DHT22;10036;47.812;9.274;2022-12-18T09:54:10;-2.30;99.90
19755;DHT22;10036;47.812;9.274;2022-12-18T09:56:41;-2.20;99.90
19755;DHT22;10036;47.812;9.274;2022-12-18T09:59:19;-2.20;99.90
19755;DHT22;10036;47.812;9.274;2022-12-18T10:01:46;-2.20;99.90
19755;DHT22;10036;47.812;9.274;2022-12-18T10:04:13;-2.30;99.90
19755;DHT22;10036;47.812;9.274;2022-12-18T10:06:44;-2.30;99.90
19755;DHT22;10036;47.812;9.274;2022-12-18T10:09:19;-2.20;99.90
19755;DHT22;10036;47.812;9.274;2022-12-18T10:11:55;-2.20;99.90
19755;DHT22;10036;47.812;9.274;2022-12-18T10:14:30;-2.20;99.90
19755;DHT22;10036;47.812;9.274;2022-12-18T10:17:13;-2.20;99.90
19755;DHT22;10036;47.812;9.274;2022-12-18T10:19:46;-2.30;99.90
19755;DHT22;10036;47.812;9.274;2022-12-18T10:22:24;-2.30;99.90
19755;DHT22;10036;47.812;9.274;2022-12-18T10:24:58;-2.30;99.90
19755;DHT22;10036;47.812;9.274;2022-12-18T10:27:27;-2.20;99.90
19755;DHT22;10036;47.812;9.274;2022-12-18T10:29:54;-2.20;99.90
19755;DHT22;10036;47.812;9.274;2022-12-18T10:32:23;-2.20;99.90
19755;DHT22;10036;47.812;9.274;2022-12-18T10:34:53;-2.20;99.90
19755;DHT22;10036;47.812;9.274;2022-12-18T10:37:23;-2.20;99.90
19755;DHT22;10036;47.812;9.274;2022-12-18T10:40:07;-2.10;99.90
19755;DHT22;10036;47.812;9.274;2022-12-18T10:42:35;-2.00;99.90
19755;DHT22;10036;47.812;9.274;2022-12-18T10:45:07;-2.00;99.90
19755;DHT22;10036;47.812;9.274;2022-12-18T10:47:35;-2.00;99.90
19755;DHT22;10036;47.812;9.274;2022-12-18T10:50:02;-2.00;99.90
19755;DHT22;10036;47.812;9.274;2022-12-18T10:52:30;-2.00;99.90
19755;DHT22;10036;47.812;9.274;2022-12-18T10:54:59;-2.00;99.90
19755;DHT22;10036;47.812;9.274;2022-12-18T10:57:33;-1.90;99.90
19755;DHT22;10036;47.812;9.274;2022-12-18T11:00:23;-1.90;99.90
19755;DHT22;10036;47.812;9.274;2022-12-18T11:02:51;-1.80;99.90
19755;DHT22;10036;47.812;9.274;2022-12-18T11:05:26;-1.80;99.90
19755;DHT22;10036;47.812;9.274;2022-12-18T11:07:54;-1.80;99.90
19755;DHT22;10036;47.812;9.274;2022-12-18T11:10:27;-1.90;99.90
19755;DHT22;10036;47.812;9.274;2022-12-18T11:12:54;-2.00;99.90
19755;DHT22;10036;47.812;9.274;2022-12-18T11:15:26;-1.90;99.90
19755;DHT22;10036;47.812;9.274;2022-12-18T11:17:55;-1.80;99.90
19755;DHT22;10036;47.812;9.274;2022-12-18T11:20:30;-1.70;99.90
19755;DHT22;10036;47.812;9.274;2022-12-18T11:22:59;-1.60;99.90
19755;DHT22;10036;47.812;9.274;2022-12-18T11:25:27;-1.70;99.90
19755;DHT22;10036;47.812;9.274;2022-12-18T11:27:55;-1.80;99.90
19755;DHT22;10036;47.812;9.274;2022-12-18T11:30:26;-1.60;99.90
19755;DHT22;10036;47.812;9.274;2022-12-18T11:32:56;-1.60;99.90
19755;DHT22;10036;47.812;9.274;2022-12-18T11:35:35;-1.60;99.90
19755;DHT22;10036;47.812;9.274;2022-12-18T11:38:10;-1.40;99.90
19755;DHT22;10036;47.812;9.274;2022-12-18T11:40:43;-1.30;99.90
19755;DHT22;10036;47.812;9.274;2022-12-18T11:43:14;-1.30;99.90
19755;DHT22;10036;47.812;9.274;2022-12-18T11:45:48;-1.20;99.90
19755;DHT22;10036;47.812;9.274;2022-12-18T11:48:22;-1.20;99.90
19755;DHT22;10036;47.812;9.274;2022-12-18T11:50:51;-1.20;99.90
19755;DHT22;10036;47.812;9.274;2022-12-18T11:53:20;-1.20;99.90
19755;DHT22;10036;47.812;9.274;2022-12-18T11:56:00;-1.30;99.90
19755;DHT22;10036;47.812;9.274;2022-12-18T11:58:46;-1.30;99.90
19755;DHT22;10036;47.812;9.274;2022-12-18T12:01:27;-1.40;99.90
19755;DHT22;10036;47.812;9.274;2022-12-18T12:04:15;-1.50;99.90
19755;DHT22;10036;47.812;9.274;2022-12-18T12:06:51;-1.50;99.90
19755;DHT22;10036;47.812;9.274;2022-12-18T12:09:28;-1.40;99.90
19755;DHT22;10036;47.812;9.274;2022-12-18T12:12:07;-1.30;99.90
19755;DHT22;10036;47.812;9.274;2022-12-18T12:14:46;-1.30;99.90
19755;DHT22;10036;47.812;9.274;2022-12-18T12:17:24;-1.30;99.90
19755;DHT22;10036;47.812;9.274;2022-12-18T12:19:57;-1.30;99.90
19755;DHT22;10036;47.812;9.274;2022-12-18T12:22:34;-1.20;99.90
19755;DHT22;10036;47.812;9.274;2022-12-18T12:25:13;-1.20;99.90
19755;DHT22;10036;47.812;9.274;2022-12-18T12:27:48;-1.20;99.90
19755;DHT22;10036;47.812;9.274;2022-12-18T12:30:21;-1.10;99.90
19755;DHT22;10036;47.812;9.274;2022-12-18T12:33:06;-1.10;99.90
19755;DHT22;10036;47.812;9.274;2022-12-18T12:35:44;-1.10;99.90
19755;DHT22;10036;47.812;9.274;2022-12-18T12:38:16;-1.10;99.90
19755;DHT22;10036;47.812;9.274;2022-12-18T12:40:47;-1.00;99.90
19755;DHT22;10036;47.812;9.274;2022-12-18T12:43:22;-1.10;99.90
19755;DHT22;10036;47.812;9.274;2022-12-18T12:45:53;-1.00;99.90
19755;DHT22;10036;47.812;9.274;2022-12-18T12:51:17;-1.00;99.90
19755;DHT22;10036;47.812;9.274;2022-12-18T12:53:46;-0.90;99.90
19755;DHT22;10036;47.812;9.274;2022-12-18T12:56:15;-1.00;99.90
19755;DHT22;10036;47.812;9.274;2022-12-18T12:58:49;-0.90;99.90
19755;DHT22;10036;47.812;9.274;2022-12-18T13:01:25;-0.80;99.90
19755;DHT22;10036;47.812;9.274;2022-12-18T13:04:03;-0.80;99.90
19755;DHT22;10036;47.812;9.274;2022-12-18T13:06:39;-0.90;99.90
19755;DHT22;10036;47.812;9.274;2022-12-18T13:09:08;-0.90;99.90
19755;DHT22;10036;47.812;9.274;2022-12-18T13:11:37;-1.00;99.90
19755;DHT22;10036;47.812;9.274;2022-12-18T13:14:28;-1.00;99.90
19755;DHT22;10036;47.812;9.274;2022-12-18T13:17:28;-1.00;99.90
19755;DHT22;10036;47.812;9.274;2022-12-18T13:20:12;-1.10;99.90
19755;DHT22;10036;47.812;9.274;2022-12-18T13:22:43;-1.20;99.90
19755;DHT22;10036;47.812;9.274;2022-12-18T13:25:31;-1.40;99.90
19755;DHT22;10036;47.812;9.274;2022-12-18T13:28:04;-1.40;99.90
19755;DHT22;10036;47.812;9.274;2022-12-18T13:30:49;-1.40;99.90
19755;DHT22;10036;47.812;9.274;2022-12-18T13:33:47;-1.40;99.90
19755;DHT22;10036;47.812;9.274;2022-12-18T13:36:26;-1.50;99.90
19755;DHT22;10036;47.812;9.274;2022-12-18T13:45:44;-1.60;99.90
19755;DHT22;10036;47.812;9.274;2022-12-18T13:48:21;-1.70;99.90
19755;DHT22;10036;47.812;9.274;2022-12-18T13:50:50;-1.60;99.90
19755;DHT22;10036;47.812;9.274;2022-12-18T13:53:24;-1.70;99.90
19755;DHT22;10036;47.812;9.274;2022-12-18T13:55:51;-1.60;99.90
19755;DHT22;10036;47.812;9.274;2022-12-18T13:58:18;-1.50;99.90
19755;DHT22;10036;47.812;9.274;2022-12-18T14:00:45;-1.50;99.90
19755;DHT22;10036;47.812;9.274;2022-12-18T14:03:18;-1.40;99.90
19755;DHT22;10036;47.812;9.274;2022-12-18T14:05:45;-1.40;99.90
19755;DHT22;10036;47.812;9.274;2022-12-18T14:08:18;-1.30;99.90
19755;DHT22;10036;47.812;9.274;2022-12-18T14:10:48;-1.30;99.90
19755;DHT22;10036;47.812;9.274;2022-12-18T14:13:21;-1.30;99.90
19755;DHT22;10036;47.812;9.274;2022-12-18T14:15:50;-1.30;99.90
19755;DHT22;10036;47.812;9.274;2022-12-18T14:18:21;-1.30;99.90
19755;DHT22;10036;47.812;9.274;2022-12-18T14:20:50;-1.30;99.90
19755;DHT22;10036;47.812;9.274;2022-12-18T14:23:32;-1.30;99.90
19755;DHT22;10036;47.812;9.274;2022-12-18T14:26:01;-1.40;99.90
19755;DHT22;10036;47.812;9.274;2022-12-18T14:28:29;-1.40;99.90
19755;DHT22;10036;47.812;9.274;2022-12-18T14:30:56;-1.40;99.90
19755;DHT22;10036;47.812;9.274;2022-12-18T14:33:24;-1.30;99.90
19755;DHT22;10036;47.812;9.274;2022-12-18T14:35:59;-1.30;99.90
19755;DHT22;10036;47.812;9.274;2022-12-18T14:38:29;-1.30;99.90
19755;DHT22;10036;47.812;9.274;2022-12-18T14:40:57;-1.40;99.90
19755;DHT22;10036;47.812;9.274;2022-12-18T14:43:27;-1.40;99.90
19755;DHT22;10036;47.812;9.274;2022-12-18T14:45:55;-1.40;99.90
19755;DHT22;10036;47.812;9.274;2022-12-18T14:48:33;-1.40;99.90
19755;DHT22;10036;47.812;9.274;2022-12-18T14:51:02;-1.40;99.90
19755;DHT22;10036;47.812;9.274;2022-12-18T14:53:36;-1.30;99.90
19755;DHT22;10036;47.812;9.274;2022-12-18T14:56:14;-1.30;99.90
19755;DHT22;10036;47.812;9.274;2022-12-18T14:58:49;-1.30;99.90
19755;DHT22;10036;47.812;9.274;2022-12-18T15:01:22;-1.40;99.90
19755;DHT22;10036;47.812;9.274;2022-12-18T15:03:51;-1.30;99.90
19755;DHT22;10036;47.812;9.274;2022-12-18T15:06:25;-1.30;99.90
19755;DHT22;10036;47.812;9.274;2022-12-18T15:08:53;-1.40;99.90
19755;DHT22;10036;47.812;9.274;2022-12-18T15:11:44;-1.40;99.90
19755;DHT22;10036;47.812;9.274;2022-12-18T15:14:33;-1.50;99.90
19755;DHT22;10036;47.812;9.274;2022-12-18T15:17:03;-1.50;99.90
19755;DHT22;10036;47.812;9.274;2022-12-18T15:19:36;-1.50;99.90
19755;DHT22;10036;47.812;9.274;2022-12-18T15:22:03;-1.40;99.90
19755;DHT22;10036;47.812;9.274;2022-12-18T15:24:31;-1.40;99.90
19755;DHT22;10036;47.812;9.274;2022-12-18T15:26:58;-1.50;99.90
19755;DHT22;10036;47.812;9.274;2022-12-18T15:29:25;-1.50;99.90
19755;DHT22;10036;47.812;9.274;2022-12-18T15:32:01;-1.50;99.90
19755;DHT22;10036;47.812;9.274;2022-12-18T15:34:29;-1.50;99.90
19755;DHT22;10036;47.812;9.274;2022-12-18T15:36:55;-1.60;99.90
19755;DHT22;10036;47.812;9.274;2022-12-18T15:39:22;-1.50;99.90
19755;DHT22;10036;47.812;9.274;2022-12-18T15:41:49;-1.60;99.90
19755;DHT22;10036;47.812;9.274;2022-12-18T15:44:33;-1.50;99.90
19755;DHT22;10036;47.812;9.274;2022-12-18T15:47:02;-1.40;99.90
19755;DHT22;10036;47.812;9.274;2022-12-18T15:49:29;-1.60;99.90
19755;DHT22;10036;47.812;9.274;2022-12-18T15:51:58;-1.70;99.90
19755;DHT22;10036;47.812;9.274;2022-12-18T15:54:26;-1.60;99.90
19755;DHT22;10036;47.812;9.274;2022-12-18T15:57:11;-1.60;99.90
19755;DHT22;10036;47.812;9.274;2022-12-18T15:59:51;-1.70;99.90